createdAt,value
2017-06-30T00:00:41.277Z,984.67
2017-06-30T00:01:41.287Z,984.65
2017-06-30T00:02:41.325Z,984.67
2017-06-30T00:03:41.363Z,984.72
2017-06-30T00:04:41.402Z,984.67
2017-06-30T00:05:41.441Z,984.69
2017-06-30T00:06:41.481Z,984.72
2017-06-30T00:07:41.519Z,984.71
2017-06-30T00:08:41.558Z,984.73
2017-06-30T00:09:41.598Z,984.78
2017-06-30T00:10:41.638Z,984.79
2017-06-30T00:11:41.674Z,984.71
2017-06-30T00:12:41.714Z,984.75
2017-06-30T00:13:41.753Z,984.8
2017-06-30T00:14:41.791Z,984.75
2017-06-30T00:15:41.831Z,984.78
2017-06-30T00:16:41.869Z,984.75
2017-06-30T00:17:41.909Z,984.73
2017-06-30T00:18:41.947Z,984.7
2017-06-30T00:19:41.988Z,984.7
2017-06-30T00:20:42.025Z,984.7
2017-06-30T00:21:42.063Z,984.73
2017-06-30T00:22:42.101Z,984.7
2017-06-30T00:23:42.141Z,984.77
2017-06-30T00:24:42.180Z,984.76
2017-06-30T00:25:42.218Z,984.71
2017-06-30T00:26:42.256Z,984.81
2017-06-30T00:27:42.296Z,984.69
2017-06-30T00:28:42.334Z,984.79
2017-06-30T00:29:42.374Z,984.73
2017-06-30T00:30:42.413Z,984.78
2017-06-30T00:31:42.451Z,984.74
2017-06-30T00:32:42.491Z,984.8
2017-06-30T00:33:42.528Z,984.74
2017-06-30T00:34:42.568Z,984.76
2017-06-30T00:35:42.607Z,984.81
2017-06-30T00:36:42.646Z,984.74
2017-06-30T00:37:42.684Z,984.82
2017-06-30T00:38:42.722Z,984.81
2017-06-30T00:39:42.761Z,984.77
2017-06-30T00:40:42.799Z,984.82
2017-06-30T00:41:42.839Z,984.78
2017-06-30T00:42:42.877Z,984.86
2017-06-30T00:43:42.918Z,984.83
2017-06-30T00:44:42.955Z,984.85
2017-06-30T00:45:42.997Z,984.82
2017-06-30T00:46:43.033Z,984.86
2017-06-30T00:47:43.071Z,984.79
2017-06-30T00:48:43.110Z,984.82
2017-06-30T00:49:43.149Z,984.79
2017-06-30T00:50:43.188Z,984.75
2017-06-30T00:51:43.225Z,984.66
2017-06-30T00:52:43.274Z,984.71
2017-06-30T00:53:43.303Z,984.78
2017-06-30T00:54:43.344Z,984.74
2017-06-30T00:55:43.383Z,984.73
2017-06-30T00:56:43.420Z,984.75
2017-06-30T00:57:43.458Z,984.73
2017-06-30T00:58:43.496Z,984.68
2017-06-30T00:59:43.535Z,984.67
2017-06-30T01:00:43.577Z,984.7
2017-06-30T01:01:43.614Z,984.72
2017-06-30T01:02:43.651Z,984.75
2017-06-30T01:03:43.700Z,984.66
2017-06-30T01:04:43.729Z,984.79
2017-06-30T01:05:43.770Z,984.77
2017-06-30T01:06:43.807Z,984.72
2017-06-30T01:07:43.846Z,984.8
2017-06-30T01:08:43.885Z,984.76
2017-06-30T01:09:43.936Z,984.78
2017-06-30T01:10:43.962Z,984.8
2017-06-30T01:11:44.002Z,984.73
2017-06-30T01:12:44.042Z,984.71
2017-06-30T01:13:44.078Z,984.76
2017-06-30T01:14:44.118Z,984.75
2017-06-30T01:15:44.155Z,984.74
2017-06-30T01:16:44.196Z,984.73
2017-06-30T01:17:44.232Z,984.72
2017-06-30T01:18:44.273Z,984.76
2017-06-30T01:19:44.314Z,984.75
2017-06-30T01:20:44.348Z,984.81
2017-06-30T01:21:44.388Z,984.73
2017-06-30T01:22:44.435Z,984.7
2017-06-30T01:23:44.474Z,984.7
2017-06-30T01:24:44.505Z,984.74
2017-06-30T01:25:44.542Z,984.71
2017-06-30T01:26:44.580Z,984.71
2017-06-30T01:27:44.619Z,984.64
2017-06-30T01:28:44.657Z,984.65
2017-06-30T01:29:44.697Z,984.6
2017-06-30T01:30:44.737Z,984.63
2017-06-30T01:31:44.774Z,984.63
2017-06-30T01:32:44.814Z,984.63
2017-06-30T01:33:44.851Z,984.61
2017-06-30T01:34:44.890Z,984.54
2017-06-30T01:35:44.929Z,984.62
2017-06-30T01:36:44.966Z,984.66
2017-06-30T01:37:45.006Z,984.53
2017-06-30T01:38:45.044Z,984.62
2017-06-30T01:39:45.082Z,984.59
2017-06-30T01:40:45.122Z,984.62
2017-06-30T01:41:45.160Z,984.6
2017-06-30T01:42:45.198Z,984.62
2017-06-30T01:43:45.237Z,984.71
2017-06-30T01:44:45.276Z,984.68
2017-06-30T01:45:45.314Z,984.66
2017-06-30T01:46:45.366Z,984.66
2017-06-30T01:47:45.391Z,984.64
2017-06-30T01:48:45.430Z,984.67
2017-06-30T01:49:45.469Z,984.64
2017-06-30T01:50:45.508Z,984.67
2017-06-30T01:51:45.547Z,984.69
2017-06-30T01:52:45.587Z,984.7
2017-06-30T01:53:45.624Z,984.76
2017-06-30T01:54:45.662Z,984.7
2017-06-30T01:55:45.704Z,984.8
2017-06-30T01:56:45.741Z,984.72
2017-06-30T01:57:45.779Z,984.81
2017-06-30T01:58:45.817Z,984.71
2017-06-30T01:59:45.855Z,984.71
2017-06-30T02:00:45.893Z,984.82
2017-06-30T02:01:45.935Z,984.75
2017-06-30T02:02:45.974Z,984.78
2017-06-30T02:03:46.012Z,984.78
2017-06-30T02:04:46.048Z,984.75
2017-06-30T02:05:46.088Z,984.8
2017-06-30T02:06:46.127Z,984.81
2017-06-30T02:07:46.164Z,984.82
2017-06-30T02:08:46.202Z,984.79
2017-06-30T02:09:46.241Z,984.84
2017-06-30T02:10:46.295Z,984.85
2017-06-30T02:11:46.317Z,984.8
2017-06-30T02:12:46.356Z,984.76
2017-06-30T02:13:46.397Z,984.75
2017-06-30T02:14:46.436Z,984.82
2017-06-30T02:15:46.473Z,984.78
2017-06-30T02:16:46.512Z,984.81
2017-06-30T02:17:46.549Z,984.85
2017-06-30T02:18:46.591Z,984.81
2017-06-30T02:19:46.627Z,984.83
2017-06-30T02:20:46.666Z,984.83
2017-06-30T02:21:46.704Z,984.75
2017-06-30T02:22:46.742Z,984.9
2017-06-30T02:23:46.782Z,984.88
2017-06-30T02:24:46.821Z,984.77
2017-06-30T02:25:46.859Z,984.91
2017-06-30T02:26:46.897Z,984.94
2017-06-30T02:27:46.936Z,984.96
2017-06-30T02:28:46.975Z,984.99
2017-06-30T02:29:47.031Z,984.97
2017-06-30T02:30:47.051Z,984.93
2017-06-30T02:31:47.091Z,984.94
2017-06-30T02:32:47.130Z,984.96
2017-06-30T02:33:47.167Z,984.99
2017-06-30T02:34:47.209Z,984.99
2017-06-30T02:35:47.246Z,984.78
2017-06-30T02:36:47.285Z,985.07
2017-06-30T02:37:47.338Z,985.04
2017-06-30T02:38:47.360Z,985.02
2017-06-30T02:39:47.400Z,985.03
2017-06-30T02:40:47.442Z,985.12
2017-06-30T02:41:47.478Z,985.01
2017-06-30T02:42:47.515Z,985.06
2017-06-30T02:43:47.555Z,985.08
2017-06-30T02:44:47.593Z,985.06
2017-06-30T02:45:47.633Z,985.1
2017-06-30T02:46:47.671Z,985.11
2017-06-30T02:47:47.710Z,985.12
2017-06-30T02:48:47.746Z,985.02
2017-06-30T02:49:47.787Z,984.99
2017-06-30T02:50:47.825Z,985.03
2017-06-30T02:51:47.864Z,985.06
2017-06-30T02:52:47.902Z,985.06
2017-06-30T02:53:47.940Z,985.13
2017-06-30T02:54:47.980Z,985.06
2017-06-30T02:55:48.018Z,985.11
2017-06-30T02:56:48.056Z,985.19
2017-06-30T02:57:48.095Z,985.06
2017-06-30T02:58:48.134Z,985.2
2017-06-30T02:59:48.173Z,985.21
2017-06-30T03:00:48.212Z,985.2
2017-06-30T03:01:48.251Z,985.23
2017-06-30T03:02:48.289Z,985.26
2017-06-30T03:03:48.329Z,985.26
2017-06-30T03:04:48.366Z,985.25
2017-06-30T03:05:48.405Z,985.24
2017-06-30T03:06:48.444Z,985.19
2017-06-30T03:07:48.483Z,985.34
2017-06-30T03:08:48.522Z,985.32
2017-06-30T03:09:48.562Z,985.31
2017-06-30T03:10:48.600Z,985.28
2017-06-30T03:11:48.638Z,985.25
2017-06-30T03:12:48.696Z,985.3
2017-06-30T03:13:48.715Z,985.26
2017-06-30T03:14:48.753Z,985.35
2017-06-30T03:15:48.792Z,985.35
2017-06-30T03:16:48.831Z,985.15
2017-06-30T03:17:48.870Z,985.32
2017-06-30T03:18:48.908Z,985.31
2017-06-30T03:19:48.948Z,985.3
2017-06-30T03:20:48.986Z,985.26
2017-06-30T03:21:49.025Z,985.33
2017-06-30T03:22:49.064Z,985.41
2017-06-30T03:23:49.102Z,985.35
2017-06-30T03:24:49.141Z,985.39
2017-06-30T03:25:49.180Z,985.42
2017-06-30T03:26:49.220Z,985.42
2017-06-30T03:27:49.260Z,985.43
2017-06-30T03:28:49.297Z,985.47
2017-06-30T03:29:49.336Z,985.49
2017-06-30T03:30:49.375Z,985.46
2017-06-30T03:31:49.414Z,985.47
2017-06-30T03:32:49.451Z,985.44
2017-06-30T03:33:49.495Z,985.43
2017-06-30T03:34:49.530Z,985.46
2017-06-30T03:35:49.569Z,985.48
2017-06-30T03:36:49.609Z,985.51
2017-06-30T03:37:49.647Z,985.57
2017-06-30T03:38:49.686Z,985.55
2017-06-30T03:39:49.724Z,985.51
2017-06-30T03:40:49.764Z,985.56
2017-06-30T03:41:49.808Z,985.56
2017-06-30T03:42:49.842Z,985.63
2017-06-30T03:43:49.879Z,985.61
2017-06-30T03:44:49.919Z,985.65
2017-06-30T03:45:49.958Z,985.66
2017-06-30T03:46:49.996Z,985.64
2017-06-30T03:47:50.036Z,985.65
2017-06-30T03:48:50.073Z,985.59
2017-06-30T03:49:50.114Z,985.68
2017-06-30T03:50:50.150Z,985.63
2017-06-30T03:51:50.192Z,985.7
2017-06-30T03:52:50.230Z,985.68
2017-06-30T03:53:50.269Z,985.78
2017-06-30T03:54:50.307Z,985.71
2017-06-30T03:55:50.347Z,985.76
2017-06-30T03:56:50.385Z,985.69
2017-06-30T03:57:50.424Z,985.68
2017-06-30T03:58:50.463Z,985.72
2017-06-30T03:59:50.501Z,985.78
2017-06-30T04:00:50.540Z,985.72
2017-06-30T04:01:50.579Z,985.73
2017-06-30T04:02:50.620Z,985.77
2017-06-30T04:03:50.656Z,985.74
2017-06-30T04:04:50.697Z,985.81
2017-06-30T04:05:50.734Z,985.83
2017-06-30T04:06:50.774Z,985.89
2017-06-30T04:07:50.813Z,985.83
2017-06-30T04:08:50.851Z,985.83
2017-06-30T04:09:50.890Z,985.87
2017-06-30T04:10:50.930Z,985.93
2017-06-30T04:11:50.969Z,985.85
2017-06-30T04:12:51.007Z,985.86
2017-06-30T04:13:51.047Z,985.87
2017-06-30T04:14:51.086Z,985.91
2017-06-30T04:15:51.124Z,985.97
2017-06-30T04:16:51.164Z,985.97
2017-06-30T04:17:51.201Z,986.01
2017-06-30T04:18:51.241Z,986.04
2017-06-30T04:19:51.279Z,986
2017-06-30T04:20:51.319Z,985.93
2017-06-30T04:21:51.356Z,985.99
2017-06-30T04:22:51.397Z,986.04
2017-06-30T04:23:51.435Z,986.09
2017-06-30T04:24:51.474Z,986.07
2017-06-30T04:25:51.514Z,986.08
2017-06-30T04:26:51.550Z,986.2
2017-06-30T04:27:51.589Z,986.08
2017-06-30T04:28:51.629Z,986.07
2017-06-30T04:29:51.668Z,986.2
2017-06-30T04:30:51.708Z,986.21
2017-06-30T04:31:51.746Z,986.06
2017-06-30T04:32:51.784Z,986.15
2017-06-30T04:33:51.824Z,986.2
2017-06-30T04:34:51.861Z,986.23
2017-06-30T04:35:51.902Z,986.29
2017-06-30T04:36:51.940Z,986.3
2017-06-30T04:37:51.980Z,986.3
2017-06-30T04:38:52.017Z,986.32
2017-06-30T04:39:52.057Z,986.35
2017-06-30T04:40:52.136Z,986.31
2017-06-30T04:41:52.135Z,986.42
2017-06-30T04:42:52.173Z,986.34
2017-06-30T04:43:52.212Z,986.33
2017-06-30T04:44:52.251Z,986.32
2017-06-30T04:45:52.292Z,986.35
2017-06-30T04:46:52.329Z,986.38
2017-06-30T04:47:52.368Z,986.44
2017-06-30T04:48:52.408Z,986.47
2017-06-30T04:49:52.446Z,986.44
2017-06-30T04:50:52.485Z,986.28
2017-06-30T04:51:52.524Z,986.3
2017-06-30T04:52:52.561Z,986.33
2017-06-30T04:53:52.601Z,986.37
2017-06-30T04:54:52.640Z,986.37
2017-06-30T04:55:52.679Z,986.38
2017-06-30T04:56:52.717Z,986.47
2017-06-30T04:57:52.757Z,986.49
2017-06-30T04:58:52.795Z,986.46
2017-06-30T04:59:52.835Z,986.5
2017-06-30T05:00:52.875Z,986.5
2017-06-30T05:01:52.915Z,986.51
2017-06-30T05:02:52.953Z,986.53
2017-06-30T05:03:52.992Z,986.54
2017-06-30T05:04:53.030Z,986.45
2017-06-30T05:05:53.070Z,986.51
2017-06-30T05:06:53.108Z,986.56
2017-06-30T05:07:53.194Z,986.54
2017-06-30T05:08:53.186Z,986.48
2017-06-30T05:09:53.226Z,986.53
2017-06-30T05:10:53.266Z,986.58
2017-06-30T05:11:53.303Z,986.61
2017-06-30T05:12:53.346Z,986.58
2017-06-30T05:13:53.385Z,986.56
2017-06-30T05:14:53.420Z,986.61
2017-06-30T05:15:53.460Z,986.62
2017-06-30T05:16:53.499Z,986.58
2017-06-30T05:17:53.539Z,986.62
2017-06-30T05:18:53.578Z,986.62
2017-06-30T05:19:53.618Z,986.63
2017-06-30T05:20:53.655Z,986.71
2017-06-30T05:21:53.694Z,986.72
2017-06-30T05:22:53.735Z,986.67
2017-06-30T05:23:53.774Z,986.67
2017-06-30T05:24:53.812Z,986.71
2017-06-30T05:25:53.852Z,986.66
2017-06-30T05:26:53.891Z,986.69
2017-06-30T05:27:53.931Z,986.68
2017-06-30T05:28:53.969Z,986.79
2017-06-30T05:29:54.008Z,986.62
2017-06-30T05:30:54.046Z,986.73
2017-06-30T05:31:54.085Z,986.8
2017-06-30T05:32:54.125Z,986.82
2017-06-30T05:33:54.164Z,986.84
2017-06-30T05:34:54.206Z,986.81
2017-06-30T05:35:54.243Z,986.82
2017-06-30T05:36:54.283Z,986.83
2017-06-30T05:37:54.321Z,986.83
2017-06-30T05:38:54.359Z,986.85
2017-06-30T05:39:54.399Z,986.87
2017-06-30T05:40:54.438Z,986.8
2017-06-30T05:41:54.477Z,986.89
2017-06-30T05:42:54.516Z,986.91
2017-06-30T05:43:54.555Z,986.91
2017-06-30T05:44:54.595Z,986.9
2017-06-30T05:45:54.636Z,986.94
2017-06-30T05:46:54.674Z,986.91
2017-06-30T05:47:54.712Z,986.92
2017-06-30T05:48:54.753Z,987.02
2017-06-30T05:49:54.820Z,986.96
2017-06-30T05:50:54.864Z,987.01
2017-06-30T05:51:54.872Z,986.98
2017-06-30T05:52:54.911Z,986.94
2017-06-30T05:53:54.951Z,987.09
2017-06-30T05:54:54.989Z,987
2017-06-30T05:55:55.028Z,987.03
2017-06-30T05:56:55.069Z,987.08
2017-06-30T05:57:55.109Z,987.06
2017-06-30T05:58:55.147Z,986.92
2017-06-30T05:59:55.188Z,987.08
2017-06-30T06:00:55.228Z,987.08
2017-06-30T06:01:55.272Z,987.05
2017-06-30T06:02:55.307Z,987.09
2017-06-30T06:03:55.347Z,987.13
2017-06-30T06:04:55.388Z,987.21
2017-06-30T06:05:55.434Z,987.28
2017-06-30T06:06:55.466Z,987.23
2017-06-30T06:07:55.507Z,987.21
2017-06-30T06:08:55.548Z,987.27
2017-06-30T06:09:55.586Z,987.18
2017-06-30T06:10:55.626Z,987.22
2017-06-30T06:11:55.666Z,987.27
2017-06-30T06:12:55.707Z,987.23
2017-06-30T06:13:55.745Z,987.24
2017-06-30T06:14:55.787Z,987.27
2017-06-30T06:15:55.826Z,987.26
2017-06-30T06:16:55.865Z,987.31
2017-06-30T06:17:55.906Z,987.33
2017-06-30T06:18:55.945Z,987.28
2017-06-30T06:19:55.985Z,987.32
2017-06-30T06:20:56.025Z,987.32
2017-06-30T06:21:56.065Z,987.32
2017-06-30T06:22:56.104Z,987.43
2017-06-30T06:23:56.144Z,987.4
2017-06-30T06:24:56.183Z,987.36
2017-06-30T06:25:56.225Z,987.29
2017-06-30T06:26:56.263Z,987.33
2017-06-30T06:27:56.302Z,987.28
2017-06-30T06:28:56.351Z,987.31
2017-06-30T06:29:56.383Z,987.26
2017-06-30T06:30:56.424Z,987.3
2017-06-30T06:31:56.464Z,987.37
2017-06-30T06:32:56.503Z,987.27
2017-06-30T06:33:56.544Z,987.36
2017-06-30T06:34:56.583Z,987.45
2017-06-30T06:35:56.625Z,987.38
2017-06-30T06:36:56.666Z,987.48
2017-06-30T06:37:56.707Z,987.4
2017-06-30T06:38:56.744Z,987.11
2017-06-30T06:39:56.807Z,987.32
2017-06-30T06:40:56.827Z,987.39
2017-06-30T06:41:56.866Z,987.41
2017-06-30T06:42:56.907Z,987.27
2017-06-30T06:43:56.949Z,987.45
2017-06-30T06:44:56.988Z,987.38
2017-06-30T06:45:57.027Z,987.46
2017-06-30T06:46:57.067Z,987.5
2017-06-30T06:47:57.113Z,987.5
2017-06-30T06:48:57.148Z,987.54
2017-06-30T06:49:57.188Z,987.48
2017-06-30T06:50:57.231Z,987.42
2017-06-30T06:51:57.272Z,987.5
2017-06-30T06:52:57.313Z,987.48
2017-06-30T06:53:57.353Z,987.48
2017-06-30T06:54:57.395Z,987.43
2017-06-30T06:55:57.437Z,987.52
2017-06-30T06:56:57.478Z,987.5
2017-06-30T06:57:57.519Z,987.4
2017-06-30T06:58:57.561Z,987.45
2017-06-30T06:59:57.609Z,987.45
2017-06-30T07:00:57.648Z,987.53
2017-06-30T07:01:57.685Z,987.56
2017-06-30T07:02:57.728Z,987.53
2017-06-30T07:03:57.770Z,987.58
2017-06-30T07:04:57.811Z,987.61
2017-06-30T07:05:57.854Z,987.68
2017-06-30T07:06:57.897Z,987.6
2017-06-30T07:07:57.936Z,987.62
2017-06-30T07:08:57.977Z,987.61
2017-06-30T07:09:58.018Z,987.57
2017-06-30T07:10:58.061Z,987.77
2017-06-30T07:11:58.103Z,987.63
2017-06-30T07:12:58.144Z,987.66
2017-06-30T07:13:58.185Z,987.75
2017-06-30T07:14:58.226Z,987.67
2017-06-30T07:15:58.268Z,987.71
2017-06-30T07:16:58.309Z,987.7
2017-06-30T07:17:58.351Z,987.65
2017-06-30T07:18:58.392Z,987.69
2017-06-30T07:19:58.437Z,987.68
2017-06-30T07:20:59.456Z,987.8
2017-06-30T07:21:58.522Z,987.65
2017-06-30T07:22:58.566Z,987.63
2017-06-30T07:23:58.609Z,987.68
2017-06-30T07:24:58.654Z,987.55
2017-06-30T07:25:58.699Z,987.64
2017-06-30T07:26:59.716Z,987.63
2017-06-30T07:27:58.788Z,987.67
2017-06-30T07:28:58.832Z,987.75
2017-06-30T07:29:59.854Z,987.71
2017-06-30T07:30:58.919Z,987.74
2017-06-30T07:31:58.964Z,987.62
2017-06-30T07:32:59.007Z,987.68
2017-06-30T07:33:59.099Z,987.77
2017-06-30T07:34:59.095Z,987.66
2017-06-30T07:35:59.138Z,987.64
2017-06-30T07:36:59.182Z,987.79
2017-06-30T07:37:59.223Z,987.7
2017-06-30T07:38:59.268Z,987.79
2017-06-30T07:39:59.311Z,987.76
2017-06-30T07:40:59.355Z,987.78
2017-06-30T07:41:59.399Z,987.67
2017-06-30T07:42:59.440Z,987.7
2017-06-30T07:43:59.485Z,987.77
2017-06-30T07:44:59.527Z,987.82
2017-06-30T07:45:59.571Z,987.88
2017-06-30T07:46:59.615Z,987.92
2017-06-30T07:47:59.659Z,987.9
2017-06-30T07:48:59.702Z,987.96
2017-06-30T07:49:59.762Z,987.73
2017-06-30T07:50:59.793Z,987.88
2017-06-30T07:51:59.836Z,987.9
2017-06-30T07:52:59.884Z,987.79
2017-06-30T07:53:59.928Z,987.99
2017-06-30T07:54:59.988Z,987.87
2017-06-30T07:56:00.032Z,987.89
2017-06-30T07:57:00.064Z,987.85
2017-06-30T07:58:00.108Z,987.89
2017-06-30T07:59:00.153Z,988.07
2017-06-30T08:00:00.221Z,988
2017-06-30T08:01:00.242Z,988.11
2017-06-30T08:02:00.289Z,988.18
2017-06-30T08:03:00.334Z,988.06
2017-06-30T08:04:00.382Z,987.97
2017-06-30T08:05:00.428Z,988.04
2017-06-30T08:06:00.477Z,988.06
2017-06-30T08:07:00.520Z,987.89
2017-06-30T08:08:00.566Z,987.81
2017-06-30T08:09:00.613Z,987.9
2017-06-30T08:10:00.659Z,988.02
2017-06-30T08:11:00.705Z,987.92
2017-06-30T08:12:00.750Z,987.97
2017-06-30T08:13:00.798Z,988.1
2017-06-30T08:14:00.839Z,987.98
2017-06-30T08:15:00.885Z,987.96
2017-06-30T08:16:00.929Z,988.15
2017-06-30T08:17:00.982Z,987.99
2017-06-30T08:18:01.017Z,988.07
2017-06-30T08:19:01.062Z,988.14
2017-06-30T08:20:01.107Z,988.1
2017-06-30T08:21:01.150Z,988.22
2017-06-30T08:22:01.194Z,988.09
2017-06-30T08:23:01.237Z,988.06
2017-06-30T08:24:01.282Z,988.12
2017-06-30T08:25:01.324Z,988.21
2017-06-30T08:26:01.562Z,988.11
2017-06-30T08:27:01.410Z,988.13
2017-06-30T08:28:01.458Z,988.09
2017-06-30T08:29:01.499Z,988.16
2017-06-30T08:30:01.541Z,988.22
2017-06-30T08:31:01.588Z,988
2017-06-30T08:32:01.628Z,988.08
2017-06-30T08:33:01.673Z,988.2
2017-06-30T08:34:01.716Z,988.13
2017-06-30T08:35:01.760Z,988.13
2017-06-30T08:36:01.803Z,988.16
2017-06-30T08:37:01.846Z,988.12
2017-06-30T08:38:01.891Z,988.22
2017-06-30T08:39:01.933Z,988.2
2017-06-30T08:40:01.977Z,988.21
2017-06-30T08:41:02.020Z,988.18
2017-06-30T08:42:02.064Z,988.21
2017-06-30T08:43:02.107Z,988.3
2017-06-30T08:44:02.151Z,988.18
2017-06-30T08:45:02.195Z,988.15
2017-06-30T08:46:02.240Z,988.21
2017-06-30T08:47:02.285Z,988.08
2017-06-30T08:48:02.331Z,988.32
2017-06-30T08:49:02.373Z,988.12
2017-06-30T08:50:02.419Z,988.07
2017-06-30T08:51:02.462Z,988.2
2017-06-30T08:52:02.507Z,988.23
2017-06-30T08:53:02.551Z,988.22
2017-06-30T08:54:02.593Z,988.34
2017-06-30T08:55:02.639Z,988.26
2017-06-30T08:56:02.683Z,988.36
2017-06-30T08:57:02.726Z,988.33
2017-06-30T08:58:02.768Z,988.55
2017-06-30T08:59:02.814Z,988.42
2017-06-30T09:00:02.858Z,988.36
2017-06-30T09:01:02.903Z,988.47
2017-06-30T09:02:02.944Z,988.42
2017-06-30T09:03:02.990Z,988.45
2017-06-30T09:04:03.032Z,988.46
2017-06-30T09:05:03.075Z,988.48
2017-06-30T09:06:03.121Z,988.39
2017-06-30T09:07:03.166Z,988.36
2017-06-30T09:08:03.211Z,988.49
2017-06-30T09:09:03.255Z,988.44
2017-06-30T09:10:03.300Z,988.35
2017-06-30T09:11:03.347Z,988.52
2017-06-30T09:12:03.390Z,988.48
2017-06-30T09:13:03.436Z,988.54
2017-06-30T09:14:03.481Z,988.56
2017-06-30T09:15:03.527Z,988.5
2017-06-30T09:16:03.573Z,988.53
2017-06-30T09:17:03.618Z,988.59
2017-06-30T09:18:03.665Z,988.51
2017-06-30T09:19:03.709Z,988.55
2017-06-30T09:20:03.752Z,988.72
2017-06-30T09:21:03.803Z,988.83
2017-06-30T09:22:03.846Z,988.72
2017-06-30T09:23:03.891Z,988.88
2017-06-30T09:24:03.936Z,988.81
2017-06-30T09:25:03.984Z,988.95
2017-06-30T09:26:04.030Z,988.84
2017-06-30T09:27:04.076Z,988.88
2017-06-30T09:28:04.124Z,988.82
2017-06-30T09:29:04.177Z,988.93
2017-06-30T09:30:04.220Z,988.85
2017-06-30T09:31:04.270Z,988.88
2017-06-30T09:32:04.318Z,988.9
2017-06-30T09:33:04.368Z,988.85
2017-06-30T09:34:04.418Z,988.85
2017-06-30T09:35:04.467Z,988.83
2017-06-30T09:36:04.517Z,988.79
2017-06-30T09:37:04.567Z,988.82
2017-06-30T09:38:04.619Z,988.76
2017-06-30T09:39:04.667Z,988.83
2017-06-30T09:40:04.719Z,988.76
2017-06-30T09:41:04.770Z,988.65
2017-06-30T09:42:04.821Z,988.66
2017-06-30T09:43:04.873Z,988.65
2017-06-30T09:44:04.923Z,988.64
2017-06-30T09:45:04.974Z,988.62
2017-06-30T09:46:05.024Z,988.58
2017-06-30T09:47:05.072Z,988.72
2017-06-30T09:48:05.122Z,988.59
2017-06-30T09:49:05.170Z,988.73
2017-06-30T09:50:05.219Z,988.71
2017-06-30T09:51:05.264Z,988.72
2017-06-30T09:52:05.313Z,988.75
2017-06-30T09:53:05.358Z,988.85
2017-06-30T09:54:05.405Z,988.86
2017-06-30T09:55:05.451Z,988.98
2017-06-30T09:56:05.495Z,989.02
2017-06-30T09:57:05.543Z,988.98
2017-06-30T09:58:05.588Z,989.06
2017-06-30T09:59:05.636Z,988.95
2017-06-30T10:00:05.683Z,989.05
2017-06-30T10:01:05.729Z,989.01
2017-06-30T10:02:05.778Z,989.04
2017-06-30T10:03:05.832Z,988.99
2017-06-30T10:04:05.871Z,988.98
2017-06-30T10:05:05.919Z,988.8
2017-06-30T10:06:05.969Z,988.91
2017-06-30T10:07:06.016Z,989.07
2017-06-30T10:08:06.065Z,988.91
2017-06-30T10:09:06.116Z,988.95
2017-06-30T10:10:06.165Z,989
2017-06-30T10:11:06.214Z,989
2017-06-30T10:12:06.262Z,989.07
2017-06-30T10:13:06.312Z,988.96
2017-06-30T10:14:06.362Z,989.27
2017-06-30T10:15:06.409Z,989.2
2017-06-30T10:16:06.457Z,989.24
2017-06-30T10:17:06.507Z,989.18
2017-06-30T10:18:06.556Z,988.92
2017-06-30T10:19:06.603Z,989.14
2017-06-30T10:20:06.654Z,989.51
2017-06-30T10:21:06.704Z,989.3
2017-06-30T10:22:06.753Z,989.4
2017-06-30T10:23:06.803Z,989.09
2017-06-30T10:24:06.854Z,989.01
2017-06-30T10:25:06.903Z,989.2
2017-06-30T10:26:06.952Z,989.22
2017-06-30T10:27:07.002Z,989.42
2017-06-30T10:28:07.050Z,989.23
2017-06-30T10:29:07.099Z,989.19
2017-06-30T10:30:07.149Z,989.28
2017-06-30T10:31:07.197Z,989.19
2017-06-30T10:32:07.244Z,989.25
2017-06-30T10:33:07.294Z,989.27
2017-06-30T10:34:07.341Z,989.61
2017-06-30T10:35:07.391Z,989.44
2017-06-30T10:36:07.444Z,989.18
2017-06-30T10:37:07.487Z,989.13
2017-06-30T10:38:07.537Z,989.45
2017-06-30T10:39:07.585Z,989.35
2017-06-30T10:40:07.632Z,989.14
2017-06-30T10:41:07.681Z,989.25
2017-06-30T10:42:07.730Z,989.19
2017-06-30T10:43:07.780Z,989.36
2017-06-30T10:44:07.827Z,989.26
2017-06-30T10:45:07.897Z,989.32
2017-06-30T10:46:07.922Z,989.17
2017-06-30T10:47:07.970Z,989.16
2017-06-30T10:48:08.017Z,989.22
2017-06-30T10:49:08.065Z,989.28
2017-06-30T10:50:08.111Z,989.21
2017-06-30T10:51:08.158Z,989.25
2017-06-30T10:52:08.205Z,989.16
2017-06-30T10:53:08.252Z,989.34
2017-06-30T10:54:08.298Z,989.4
2017-06-30T10:55:08.344Z,989.21
2017-06-30T10:56:08.391Z,989.41
2017-06-30T10:57:08.439Z,989.3
2017-06-30T10:58:08.488Z,989.33
2017-06-30T10:59:08.541Z,989.07
2017-06-30T11:00:08.583Z,989.19
2017-06-30T11:01:08.630Z,989.21
2017-06-30T11:02:08.676Z,989.26
2017-06-30T11:03:08.725Z,989.33
2017-06-30T11:04:08.773Z,989.32
2017-06-30T11:05:08.819Z,989.37
2017-06-30T11:06:08.866Z,989.32
2017-06-30T11:07:08.915Z,989.23
2017-06-30T11:08:08.962Z,989.14
2017-06-30T11:09:09.008Z,989.06
2017-06-30T11:10:09.056Z,989.18
2017-06-30T11:11:09.104Z,989.34
2017-06-30T11:12:09.150Z,989.27
2017-06-30T11:13:09.195Z,989.19
2017-06-30T11:14:09.241Z,989.26
2017-06-30T11:15:09.287Z,989.2
2017-06-30T11:16:09.332Z,989.3
2017-06-30T11:17:09.377Z,989.23
2017-06-30T11:18:09.423Z,989.21
2017-06-30T11:19:09.469Z,989.22
2017-06-30T11:20:09.515Z,989.11
2017-06-30T11:21:09.561Z,989.25
2017-06-30T11:22:09.606Z,989.27
2017-06-30T11:23:09.651Z,989.25
2017-06-30T11:24:09.696Z,989.28
2017-06-30T11:25:09.741Z,989.25
2017-06-30T11:26:09.785Z,989.24
2017-06-30T11:27:09.830Z,989.24
2017-06-30T11:28:09.874Z,989.21
2017-06-30T11:29:09.922Z,989.22
2017-06-30T11:30:09.964Z,989.14
2017-06-30T11:31:10.009Z,989.16
2017-06-30T11:32:10.052Z,989.23
2017-06-30T11:33:10.099Z,989.19
2017-06-30T11:34:10.142Z,989.2
2017-06-30T11:35:10.193Z,989.27
2017-06-30T11:36:10.230Z,989.34
2017-06-30T11:37:10.273Z,989.2
2017-06-30T11:38:10.316Z,989.31
2017-06-30T11:39:10.361Z,989.21
2017-06-30T11:40:10.404Z,989.29
2017-06-30T11:41:10.449Z,989.25
2017-06-30T11:42:10.491Z,989.03
2017-06-30T11:43:10.535Z,989.17
2017-06-30T11:44:10.578Z,989.16
2017-06-30T11:45:10.630Z,989.4
2017-06-30T11:46:10.666Z,989.23
2017-06-30T11:47:10.709Z,989.47
2017-06-30T11:48:10.754Z,989.36
2017-06-30T11:49:10.796Z,989.45
2017-06-30T11:50:10.838Z,989.4
2017-06-30T11:51:10.881Z,989.38
2017-06-30T11:52:10.926Z,989.33
2017-06-30T11:53:10.968Z,989.26
2017-06-30T11:54:11.012Z,989.3
2017-06-30T11:55:11.055Z,989.35
2017-06-30T11:56:11.099Z,989.21
2017-06-30T11:57:11.142Z,989.36
2017-06-30T11:58:11.186Z,989.33
2017-06-30T11:59:11.228Z,989.24
2017-06-30T12:00:11.272Z,989.29
2017-06-30T12:01:11.314Z,989.23
2017-06-30T12:02:11.357Z,989.24
2017-06-30T12:03:11.399Z,989.42
2017-06-30T12:04:11.441Z,989.28
2017-06-30T12:05:11.486Z,989.31
2017-06-30T12:06:11.529Z,989.38
2017-06-30T12:07:11.571Z,989.34
2017-06-30T12:08:11.614Z,989.5
2017-06-30T12:09:11.657Z,989.36
2017-06-30T12:10:11.701Z,989.4
2017-06-30T12:11:11.743Z,989.34
2017-06-30T12:12:11.786Z,989.39
2017-06-30T12:13:11.829Z,989.25
2017-06-30T12:14:11.878Z,989.41
2017-06-30T12:15:11.914Z,989.38
2017-06-30T12:16:11.957Z,989.33
2017-06-30T12:17:11.999Z,989.38
2017-06-30T12:18:12.043Z,989.39
2017-06-30T12:19:12.087Z,989.4
2017-06-30T12:20:12.129Z,989.41
2017-06-30T12:21:12.171Z,989.39
2017-06-30T12:22:12.215Z,989.42
2017-06-30T12:23:12.258Z,989.46
2017-06-30T12:24:12.300Z,989.26
2017-06-30T12:25:12.343Z,989.47
2017-06-30T12:26:12.385Z,989.57
2017-06-30T12:27:12.429Z,989.44
2017-06-30T12:28:12.471Z,989.51
2017-06-30T12:29:12.514Z,989.38
2017-06-30T12:30:12.556Z,989.49
2017-06-30T12:31:12.600Z,989.46
2017-06-30T12:32:12.642Z,989.41